createdAt,value
2023-05-13T00:02:08.114Z,52.50
2023-05-13T00:04:34.610Z,52.10
2023-05-13T00:07:01.118Z,52.50
2023-05-13T00:09:27.606Z,52.20
2023-05-13T00:11:54.075Z,52.40
2023-05-13T00:14:20.557Z,52.70
2023-05-13T00:16:47.196Z,52.80
2023-05-13T00:19:13.777Z,52.40
2023-05-13T00:21:40.589Z,52.80
2023-05-13T00:24:07.076Z,52.30
2023-05-13T00:26:33.541Z,52.30
2023-05-13T00:29:00.023Z,52.30
2023-05-13T00:31:26.554Z,52.00
2023-05-13T00:33:53.040Z,52.10
2023-05-13T00:36:19.529Z,52.30
2023-05-13T00:38:46.022Z,52.60
2023-05-13T00:41:12.485Z,52.10
2023-05-13T00:43:38.988Z,52.00
2023-05-13T00:46:05.488Z,52.20
2023-05-13T00:48:31.952Z,52.60
2023-05-13T00:50:58.393Z,52.60
2023-05-13T00:53:24.865Z,52.60
2023-05-13T00:55:51.318Z,51.90
2023-05-13T00:58:17.786Z,51.80
2023-05-13T01:00:44.243Z,52.50
2023-05-13T01:03:10.804Z,52.50
2023-05-13T01:08:04.355Z,51.90
2023-05-13T01:10:30.823Z,52.20
2023-05-13T01:12:57.329Z,52.00
2023-05-13T01:15:23.808Z,52.10
2023-05-13T01:17:50.339Z,52.40
2023-05-13T01:20:16.834Z,52.00
2023-05-13T01:22:43.317Z,51.90
2023-05-13T01:25:09.835Z,52.40
2023-05-13T01:27:36.303Z,52.40
2023-05-13T01:30:02.785Z,52.40
2023-05-13T01:32:29.286Z,51.70
2023-05-13T01:34:55.828Z,51.80
2023-05-13T01:37:22.302Z,52.30
2023-05-13T01:39:48.778Z,52.10
2023-05-13T01:42:15.283Z,52.00
2023-05-13T01:44:41.725Z,51.90
2023-05-13T01:47:08.190Z,51.80
2023-05-13T01:49:34.623Z,52.10
2023-05-13T01:52:01.088Z,52.30
2023-05-13T01:54:27.537Z,52.30
2023-05-13T01:56:54.057Z,52.30
2023-05-13T02:01:47.588Z,51.70
2023-05-13T02:04:14.113Z,51.80
2023-05-13T02:06:40.669Z,51.70
2023-05-13T02:09:07.164Z,51.70
2023-05-13T02:11:33.653Z,52.20
2023-05-13T02:14:00.178Z,51.70
2023-05-13T02:16:26.715Z,51.60
2023-05-13T02:18:53.287Z,51.80
2023-05-13T02:21:19.756Z,51.80
2023-05-13T02:23:46.188Z,51.80
2023-05-13T02:26:12.675Z,52.20
2023-05-13T02:28:39.144Z,51.90
2023-05-13T02:31:05.606Z,52.20
2023-05-13T02:33:32.064Z,51.80
2023-05-13T02:35:58.506Z,51.50
2023-05-13T02:38:24.976Z,52.10
2023-05-13T02:40:51.423Z,52.10
2023-05-13T02:43:17.904Z,51.70
2023-05-13T02:45:44.401Z,51.60
2023-05-13T02:48:10.876Z,51.80
2023-05-13T02:50:37.332Z,51.70
2023-05-13T02:53:03.787Z,51.50
2023-05-13T02:55:30.296Z,51.60
2023-05-13T02:57:56.794Z,52.20
2023-05-13T03:00:23.545Z,51.70
2023-05-13T03:02:50.297Z,51.70
2023-05-13T03:05:16.842Z,51.60
2023-05-13T03:07:43.314Z,52.10
2023-05-13T03:10:09.805Z,51.80
2023-05-13T03:15:03.291Z,51.70
2023-05-13T03:17:29.792Z,52.20
2023-05-13T03:19:56.248Z,51.60
2023-05-13T03:22:22.691Z,52.20
2023-05-13T03:24:49.177Z,51.70
2023-05-13T03:27:15.663Z,52.20
2023-05-13T03:29:42.142Z,51.90
2023-05-13T03:32:08.618Z,51.60
2023-05-13T03:34:35.106Z,51.60
2023-05-13T03:37:01.602Z,51.50
2023-05-13T03:39:28.097Z,51.60
2023-05-13T03:41:54.584Z,51.70
2023-05-13T03:44:21.038Z,51.80
2023-05-13T03:46:47.612Z,51.50
2023-05-13T03:49:14.116Z,51.70
2023-05-13T03:51:40.628Z,52.00
2023-05-13T03:54:07.077Z,52.00
2023-05-13T03:56:33.572Z,52.00
2023-05-13T03:59:00.032Z,51.60
2023-05-13T04:01:26.548Z,51.30
2023-05-13T04:03:53.021Z,51.40
2023-05-13T04:06:19.498Z,51.10
2023-05-13T04:08:45.991Z,52.10
2023-05-13T04:11:12.499Z,52.00
2023-05-13T04:13:38.967Z,51.70
2023-05-13T04:16:05.457Z,51.40
2023-05-13T04:18:31.988Z,51.90
2023-05-13T04:20:58.514Z,51.40
2023-05-13T04:23:25.045Z,51.90
2023-05-13T04:25:51.535Z,51.40
2023-05-13T04:30:45.105Z,51.40
2023-05-13T04:33:11.615Z,52.00
2023-05-13T04:35:38.126Z,51.40
2023-05-13T04:38:04.572Z,51.90
2023-05-13T04:40:31.080Z,51.20
2023-05-13T04:42:57.593Z,51.40
2023-05-13T04:45:24.077Z,51.30
2023-05-13T04:47:50.589Z,51.80
2023-05-13T04:50:17.093Z,51.80
2023-05-13T04:52:43.975Z,51.40
2023-05-13T04:55:10.457Z,51.40
2023-05-13T04:57:37.229Z,51.20
2023-05-13T05:00:03.684Z,51.80
2023-05-13T05:02:30.186Z,51.80
2023-05-13T05:04:56.659Z,51.20
2023-05-13T05:07:23.157Z,51.90
2023-05-13T05:09:49.669Z,51.90
2023-05-13T05:12:16.128Z,51.10
2023-05-13T05:14:42.623Z,51.30
2023-05-13T05:17:09.186Z,51.40
2023-05-13T05:19:35.766Z,51.20
2023-05-13T05:22:02.263Z,51.80
2023-05-13T05:24:28.723Z,54.10
2023-05-13T05:26:55.223Z,51.60
2023-05-13T05:29:21.715Z,51.50
2023-05-13T05:31:48.271Z,51.60
2023-05-13T05:34:14.748Z,51.50
2023-05-13T05:36:41.258Z,51.40
2023-05-13T05:39:07.730Z,52.30
2023-05-13T05:41:34.222Z,51.30
2023-05-13T05:44:00.736Z,51.40
2023-05-13T05:46:27.340Z,51.40
2023-05-13T05:48:53.862Z,51.10
2023-05-13T05:51:20.346Z,51.80
2023-05-13T05:53:46.842Z,51.50
2023-05-13T05:56:13.330Z,51.30
2023-05-13T05:58:39.846Z,51.50
2023-05-13T06:01:06.355Z,52.10
2023-05-13T06:03:33.034Z,52.00
2023-05-13T06:05:59.574Z,50.30
2023-05-13T06:08:26.089Z,51.20
2023-05-13T06:10:52.614Z,50.70
2023-05-13T06:13:19.121Z,51.60
2023-05-13T06:15:45.705Z,51.50
2023-05-13T06:18:12.245Z,51.80
2023-05-13T06:20:38.715Z,51.00
2023-05-13T06:23:05.142Z,51.20
2023-05-13T06:25:31.639Z,51.60
2023-05-13T06:27:58.732Z,50.80
2023-05-13T06:30:26.210Z,51.10
2023-05-13T06:33:00.706Z,51.60
2023-05-13T06:35:28.370Z,51.80
2023-05-13T06:37:54.894Z,51.90
2023-05-13T06:40:21.515Z,52.00
2023-05-13T06:42:48.191Z,52.60
2023-05-13T06:45:14.748Z,51.60
2023-05-13T06:47:41.254Z,52.20
2023-05-13T06:50:07.760Z,51.70
2023-05-13T06:52:34.293Z,52.30
2023-05-13T06:55:00.761Z,51.60
2023-05-13T06:57:38.769Z,52.30
2023-05-13T07:00:08.711Z,52.30
2023-05-13T07:02:35.345Z,51.70
2023-05-13T07:05:01.884Z,51.80
2023-05-13T07:07:28.318Z,52.60
2023-05-13T07:09:54.807Z,51.90
2023-05-13T07:12:21.285Z,52.10
2023-05-13T07:14:47.756Z,52.10
2023-05-13T07:17:14.356Z,52.00
2023-05-13T07:19:40.907Z,52.00
2023-05-13T07:22:07.385Z,51.70
2023-05-13T07:24:33.837Z,51.80
2023-05-13T07:27:00.349Z,52.70
2023-05-13T07:29:27.687Z,52.50
2023-05-13T07:31:54.250Z,52.60
2023-05-13T07:34:20.964Z,52.10
2023-05-13T07:36:47.451Z,52.70
2023-05-13T07:39:13.924Z,52.70
2023-05-13T07:41:40.411Z,52.30
2023-05-13T07:44:06.880Z,52.80
2023-05-13T07:46:33.432Z,53.30
2023-05-13T07:48:59.951Z,51.90
2023-05-13T07:51:26.398Z,53.00
2023-05-13T07:53:52.871Z,52.50
2023-05-13T07:56:19.307Z,52.30
2023-05-13T07:58:45.820Z,52.70
2023-05-13T08:01:12.345Z,52.30
2023-05-13T08:03:39.031Z,52.30
2023-05-13T08:06:05.628Z,52.60
2023-05-13T08:08:32.113Z,52.40
2023-05-13T08:10:58.631Z,52.70
2023-05-13T08:13:25.168Z,52.70
2023-05-13T08:15:51.670Z,52.70
2023-05-13T08:18:18.206Z,52.20
2023-05-13T08:20:44.720Z,52.70
2023-05-13T08:23:11.216Z,52.10
2023-05-13T08:25:37.670Z,52.10
2023-05-13T08:28:04.114Z,52.00
2023-05-13T08:30:30.567Z,52.10
2023-05-13T08:32:57.097Z,52.50
2023-05-13T08:35:23.884Z,52.00
2023-05-13T08:37:50.499Z,52.10
2023-05-13T08:40:16.953Z,52.60
2023-05-13T08:42:43.448Z,52.60
2023-05-13T08:45:09.942Z,52.60
2023-05-13T08:47:37.068Z,52.60
2023-05-13T08:50:03.723Z,52.70
2023-05-13T08:52:30.216Z,53.00
2023-05-13T08:54:56.709Z,52.80
2023-05-13T08:57:23.213Z,52.40
2023-05-13T08:59:49.677Z,52.90
2023-05-13T09:02:16.128Z,52.90
2023-05-13T09:04:42.736Z,53.40
2023-05-13T09:07:09.230Z,53.60
2023-05-13T09:09:35.690Z,53.50
2023-05-13T09:12:02.186Z,53.40
2023-05-13T09:14:28.659Z,52.70
2023-05-13T09:16:55.154Z,53.50
2023-05-13T09:19:21.698Z,53.70
2023-05-13T09:21:48.237Z,53.60
2023-05-13T09:24:14.746Z,53.50
2023-05-13T09:26:41.219Z,53.30
2023-05-13T09:29:07.705Z,53.40
2023-05-13T09:31:34.276Z,53.40
2023-05-13T09:36:27.822Z,53.30
2023-05-13T09:38:54.321Z,53.30
2023-05-13T09:41:20.809Z,52.70
2023-05-13T09:43:47.267Z,53.00
2023-05-13T09:46:13.742Z,53.50
2023-05-13T09:48:40.204Z,53.00
2023-05-13T09:51:06.658Z,53.60
2023-05-13T09:53:33.154Z,53.70
2023-05-13T09:55:59.657Z,53.00
2023-05-13T09:58:26.171Z,53.40
2023-05-13T10:00:52.885Z,53.30
2023-05-13T10:03:19.512Z,53.20
2023-05-13T10:05:45.997Z,53.10
2023-05-13T10:08:12.476Z,53.90
2023-05-13T10:10:38.976Z,53.80
2023-05-13T10:13:05.438Z,53.30
2023-05-13T10:15:31.943Z,53.00
2023-05-13T10:17:58.454Z,53.00
2023-05-13T10:20:24.968Z,52.90
2023-05-13T10:22:51.439Z,52.80
2023-05-13T10:25:17.921Z,53.30
2023-05-13T10:27:44.484Z,52.80
2023-05-13T10:30:10.935Z,52.70
2023-05-13T10:32:37.550Z,53.10
2023-05-13T10:35:04.061Z,52.50
2023-05-13T10:37:30.575Z,52.40
2023-05-13T10:39:57.070Z,53.00
2023-05-13T10:42:23.538Z,52.20
2023-05-13T10:44:49.985Z,53.10
2023-05-13T10:47:16.519Z,53.80
2023-05-13T10:49:43.046Z,51.70
2023-05-13T10:52:10.953Z,51.90
2023-05-13T10:54:38.673Z,51.80
2023-05-13T10:57:05.596Z,51.70
2023-05-13T10:59:32.089Z,52.40
2023-05-13T11:01:58.600Z,51.90
2023-05-13T11:06:52.136Z,52.20
2023-05-13T11:09:18.588Z,52.00
2023-05-13T11:11:45.066Z,52.00
2023-05-13T11:14:11.557Z,52.80
2023-05-13T11:16:38.396Z,52.60
2023-05-13T11:19:05.072Z,52.70
2023-05-13T11:21:31.589Z,53.00
2023-05-13T11:23:58.088Z,52.40
2023-05-13T11:26:24.573Z,53.00
2023-05-13T11:28:51.063Z,53.20
2023-05-13T11:31:17.582Z,52.70
2023-05-13T11:33:44.065Z,52.40
2023-05-13T11:36:10.685Z,52.90
2023-05-13T11:38:37.200Z,53.00
2023-05-13T11:41:03.705Z,52.60
2023-05-13T11:43:30.190Z,52.40
2023-05-13T11:45:56.701Z,52.90
2023-05-13T11:48:23.254Z,52.90
2023-05-13T11:50:49.732Z,53.40
2023-05-13T11:53:16.189Z,53.50
2023-05-13T11:55:42.684Z,53.60
2023-05-13T12:00:36.178Z,53.30
2023-05-13T12:03:02.779Z,53.60
2023-05-13T12:05:29.338Z,53.50
2023-05-13T12:07:55.845Z,53.90
2023-05-13T12:10:22.348Z,54.30
2023-05-13T12:12:48.822Z,54.30
2023-05-13T12:15:15.289Z,53.60
2023-05-13T12:17:41.782Z,54.00
2023-05-13T12:20:08.287Z,54.10
2023-05-13T12:22:34.740Z,54.20
2023-05-13T12:25:01.262Z,54.10
2023-05-13T12:27:27.805Z,53.80
2023-05-13T12:29:54.258Z,53.80
2023-05-13T12:32:20.759Z,53.20
2023-05-13T12:34:47.233Z,53.90
2023-05-13T12:37:13.764Z,53.90
2023-05-13T12:39:40.354Z,53.60
2023-05-13T12:42:06.815Z,53.80
2023-05-13T12:44:33.332Z,53.00
2023-05-13T12:47:00.774Z,52.20
2023-05-13T12:49:27.263Z,53.20
2023-05-13T12:51:53.765Z,52.60
2023-05-13T12:54:20.245Z,52.90
2023-05-13T12:56:46.693Z,52.70
2023-05-13T12:59:13.185Z,53.40
2023-05-13T13:01:39.705Z,52.30
2023-05-13T13:04:06.228Z,52.50
2023-05-13T13:06:32.745Z,52.50
2023-05-13T13:08:59.240Z,53.10
2023-05-13T13:11:25.709Z,53.00
2023-05-13T13:13:52.178Z,53.10
2023-05-13T13:16:18.772Z,53.50
2023-05-13T13:18:45.353Z,53.50
2023-05-13T13:21:11.838Z,53.50
2023-05-13T13:23:38.313Z,52.90
2023-05-13T13:26:04.773Z,53.50
2023-05-13T13:28:31.287Z,53.00
2023-05-13T13:30:57.735Z,52.80
2023-05-13T13:33:24.230Z,53.40
2023-05-13T13:35:50.666Z,52.90
2023-05-13T13:38:17.148Z,53.00
2023-05-13T13:40:43.604Z,53.10
2023-05-13T13:43:10.136Z,53.60
2023-05-13T13:45:36.707Z,53.00
2023-05-13T13:48:03.310Z,53.60
2023-05-13T13:50:29.870Z,53.10
2023-05-13T13:52:56.350Z,53.60
2023-05-13T13:55:22.797Z,53.00
2023-05-13T13:57:49.298Z,53.50
2023-05-13T14:00:15.797Z,53.00
2023-05-13T14:02:42.312Z,53.50
2023-05-13T14:05:08.923Z,52.90
2023-05-13T14:07:35.371Z,53.70
2023-05-13T14:10:01.897Z,53.60
2023-05-13T14:12:28.358Z,52.90
2023-05-13T14:14:54.839Z,53.00
2023-05-13T14:17:21.320Z,53.50
2023-05-13T14:19:47.800Z,53.20
2023-05-13T14:22:14.285Z,53.30
2023-05-13T14:24:40.779Z,53.30
2023-05-13T14:27:07.264Z,52.90
2023-05-13T14:29:33.722Z,53.00
2023-05-13T14:32:00.337Z,52.40
2023-05-13T14:34:26.882Z,52.30
2023-05-13T14:36:53.372Z,52.30
2023-05-13T14:39:19.869Z,52.80
2023-05-13T14:41:46.344Z,52.40
2023-05-13T14:44:12.854Z,52.50
2023-05-13T14:46:39.388Z,52.40
2023-05-13T14:49:05.885Z,53.00
2023-05-13T14:51:32.356Z,53.10
2023-05-13T14:53:58.840Z,52.50
2023-05-13T14:56:25.352Z,53.00
2023-05-13T14:58:51.828Z,52.70
2023-05-13T15:01:18.389Z,52.50
2023-05-13T15:03:44.882Z,52.20
2023-05-13T15:06:11.358Z,52.10
2023-05-13T15:08:37.801Z,52.00
2023-05-13T15:11:04.306Z,52.60
2023-05-13T15:13:30.789Z,53.00
2023-05-13T15:15:57.279Z,52.60
2023-05-13T15:18:23.751Z,52.40
2023-05-13T15:20:50.238Z,52.50
2023-05-13T15:23:16.717Z,52.50
2023-05-13T15:25:43.271Z,53.00
2023-05-13T15:28:09.735Z,53.30
2023-05-13T15:30:36.383Z,53.70
2023-05-13T15:33:03.007Z,53.00
2023-05-13T15:35:29.548Z,52.60
2023-05-13T15:37:56.058Z,53.70
2023-05-13T15:40:22.768Z,53.20
2023-05-13T15:42:49.314Z,53.00
2023-05-13T15:45:15.759Z,52.80
2023-05-13T15:47:42.361Z,53.10
2023-05-13T15:50:09.014Z,53.00
2023-05-13T15:52:35.482Z,52.80
2023-05-13T15:55:01.973Z,52.50
2023-05-13T15:57:28.462Z,52.30
2023-05-13T15:59:54.970Z,52.30
2023-05-13T16:02:21.459Z,52.30
2023-05-13T16:07:15.004Z,52.10
2023-05-13T16:09:41.540Z,52.70
2023-05-13T16:12:07.998Z,52.90
2023-05-13T16:14:34.516Z,52.50
2023-05-13T16:17:00.951Z,52.50
2023-05-13T16:19:27.416Z,52.70
2023-05-13T16:21:53.915Z,52.30
2023-05-13T16:24:20.418Z,52.40
2023-05-13T16:26:46.853Z,53.00
2023-05-13T16:29:13.341Z,52.90
2023-05-13T16:31:39.899Z,53.00
2023-05-13T16:34:06.388Z,53.10
2023-05-13T16:36:32.944Z,53.40
2023-05-13T16:38:59.412Z,53.20
2023-05-13T16:41:25.918Z,53.00
2023-05-13T16:43:52.379Z,52.70
2023-05-13T16:46:18.873Z,52.20
2023-05-13T16:48:45.376Z,52.60
2023-05-13T16:51:11.830Z,53.20
2023-05-13T16:53:38.309Z,52.30
2023-05-13T16:56:04.753Z,52.80
2023-05-13T16:58:31.238Z,53.70
2023-05-13T17:00:59.256Z,52.90
2023-05-13T17:03:26.156Z,53.20
2023-05-13T17:05:52.769Z,52.90
2023-05-13T17:08:19.224Z,53.30
2023-05-13T17:10:45.674Z,53.40
2023-05-13T17:13:12.105Z,53.40
2023-05-13T17:15:38.577Z,52.90
2023-05-13T17:18:05.083Z,53.50
2023-05-13T17:20:31.599Z,52.80
2023-05-13T17:22:58.095Z,53.60
2023-05-13T17:25:24.587Z,54.00
2023-05-13T17:27:51.054Z,54.00
2023-05-13T17:30:17.543Z,54.30
2023-05-13T17:32:44.013Z,54.30
2023-05-13T17:35:10.541Z,53.80
2023-05-13T17:37:37.030Z,54.30
2023-05-13T17:40:03.496Z,54.20
2023-05-13T17:42:30.010Z,54.40
2023-05-13T17:44:56.506Z,54.50
2023-05-13T17:47:23.054Z,54.50
2023-05-13T17:49:49.544Z,54.60
2023-05-13T17:52:16.028Z,54.90
2023-05-13T17:54:42.495Z,54.50
2023-05-13T17:59:36.012Z,54.70
2023-05-13T18:02:02.572Z,54.50
2023-05-13T18:04:29.040Z,55.10
2023-05-13T18:06:55.503Z,55.00
2023-05-13T18:09:22.005Z,54.60
2023-05-13T18:11:48.472Z,53.90
2023-05-13T18:14:14.952Z,55.40
2023-05-13T18:16:41.571Z,55.40
2023-05-13T18:19:08.184Z,55.30
2023-05-13T18:21:34.682Z,54.10
2023-05-13T18:24:01.207Z,54.10
2023-05-13T18:26:27.691Z,55.00
2023-05-13T18:28:54.189Z,54.80
2023-05-13T18:31:20.726Z,54.80
2023-05-13T18:33:47.192Z,55.30
2023-05-13T18:36:13.655Z,54.40
2023-05-13T18:38:40.150Z,54.80
2023-05-13T18:41:06.668Z,54.30
2023-05-13T18:43:33.177Z,54.80
2023-05-13T18:45:59.761Z,54.20
2023-05-13T18:48:26.255Z,54.70
2023-05-13T18:50:52.747Z,54.40
2023-05-13T18:53:19.298Z,54.70
2023-05-13T18:55:45.756Z,54.30
2023-05-13T18:58:12.262Z,54.80
2023-05-13T19:00:38.713Z,54.80
2023-05-13T19:03:05.316Z,54.90
2023-05-13T19:05:31.852Z,55.00
2023-05-13T19:07:58.332Z,55.00
2023-05-13T19:10:24.965Z,55.00
2023-05-13T19:12:51.642Z,55.00
2023-05-13T19:15:18.124Z,54.80
2023-05-13T19:17:44.688Z,55.00
2023-05-13T19:20:11.198Z,55.00
2023-05-13T19:22:37.710Z,55.00
2023-05-13T19:25:04.220Z,55.20
2023-05-13T19:27:32.561Z,54.90
2023-05-13T19:29:59.033Z,55.60
2023-05-13T19:32:25.566Z,55.50
2023-05-13T19:34:52.097Z,54.90
2023-05-13T19:37:18.590Z,54.80
2023-05-13T19:39:45.110Z,55.30
2023-05-13T19:42:11.601Z,55.30
2023-05-13T19:44:38.127Z,55.20
2023-05-13T19:47:04.619Z,55.20
2023-05-13T19:49:31.066Z,54.60
2023-05-13T19:51:57.578Z,54.80
2023-05-13T19:54:24.038Z,54.60
2023-05-13T19:56:50.512Z,55.10
2023-05-13T19:59:16.966Z,55.00
2023-05-13T20:01:43.469Z,54.50
2023-05-13T20:04:10.131Z,54.60
2023-05-13T20:06:36.749Z,54.30
2023-05-13T20:09:03.297Z,54.90
2023-05-13T20:11:29.770Z,54.00
2023-05-13T20:13:56.305Z,53.90
2023-05-13T20:16:22.828Z,54.50
2023-05-13T20:18:49.450Z,54.00
2023-05-13T20:21:15.991Z,54.20
2023-05-13T20:23:42.460Z,53.60
2023-05-13T20:26:08.936Z,53.90
2023-05-13T20:28:37.443Z,53.90
2023-05-13T20:31:04.260Z,54.50
2023-05-13T20:33:30.715Z,54.00
2023-05-13T20:35:57.206Z,53.90
2023-05-13T20:38:23.655Z,53.90
2023-05-13T20:40:50.179Z,54.50
2023-05-13T20:43:16.632Z,54.20
2023-05-13T20:45:43.112Z,53.90
2023-05-13T20:48:09.579Z,53.70
2023-05-13T20:50:36.092Z,53.40
2023-05-13T20:53:02.590Z,53.90
2023-05-13T20:55:29.103Z,53.20
2023-05-13T20:57:55.562Z,53.80
2023-05-13T21:00:22.266Z,53.80
2023-05-13T21:02:48.981Z,53.30
2023-05-13T21:05:15.619Z,53.70
2023-05-13T21:07:42.108Z,53.90
2023-05-13T21:10:08.631Z,54.00
2023-05-13T21:12:35.126Z,54.10
2023-05-13T21:15:01.630Z,54.00
2023-05-13T21:17:28.123Z,53.80
2023-05-13T21:19:54.648Z,53.80
2023-05-13T21:22:21.149Z,53.30
2023-05-13T21:24:47.613Z,53.90
2023-05-13T21:27:14.103Z,53.80
2023-05-13T21:29:40.591Z,53.80
2023-05-13T21:32:07.086Z,53.20
2023-05-13T21:34:33.559Z,53.60
2023-05-13T21:37:00.050Z,53.40
2023-05-13T21:39:26.533Z,53.80
2023-05-13T21:41:52.982Z,53.70
2023-05-13T21:44:19.462Z,53.70
2023-05-13T21:46:45.957Z,53.90
2023-05-13T21:49:12.554Z,54.30
2023-05-13T21:51:39.255Z,53.80
2023-05-13T21:54:05.730Z,53.20
2023-05-13T21:56:32.201Z,53.60
2023-05-13T21:58:58.701Z,53.60
2023-05-13T22:01:25.295Z,53.50
2023-05-13T22:03:51.979Z,53.00
2023-05-13T22:06:18.527Z,53.50
2023-05-13T22:08:45.044Z,53.40
2023-05-13T22:11:11.531Z,53.50
2023-05-13T22:13:38.009Z,53.60
2023-05-13T22:16:04.562Z,53.50
2023-05-13T22:18:31.270Z,53.50
2023-05-13T22:20:57.876Z,53.50
2023-05-13T22:23:24.363Z,53.50
2023-05-13T22:25:50.839Z,53.50
2023-05-13T22:28:17.360Z,53.60
2023-05-13T22:30:43.794Z,53.60
2023-05-13T22:33:10.309Z,53.60
2023-05-13T22:35:36.801Z,53.60
2023-05-13T22:38:03.276Z,53.70
2023-05-13T22:40:29.790Z,53.50
2023-05-13T22:42:56.284Z,53.70
2023-05-13T22:45:22.778Z,53.60
2023-05-13T22:47:49.372Z,53.70
2023-05-13T22:50:15.909Z,53.60
2023-05-13T22:52:42.391Z,53.70
2023-05-13T22:55:08.905Z,53.50
2023-05-13T22:57:35.443Z,53.60
2023-05-13T23:00:01.935Z,53.60
2023-05-13T23:02:28.476Z,53.20
2023-05-13T23:04:55.004Z,53.50
2023-05-13T23:07:21.514Z,53.70
2023-05-13T23:09:48.014Z,53.60
2023-05-13T23:12:14.510Z,53.30
2023-05-13T23:14:41.000Z,53.60
2023-05-13T23:17:07.483Z,53.50
2023-05-13T23:19:33.981Z,54.10
2023-05-13T23:22:00.439Z,53.60
2023-05-13T23:24:26.887Z,53.60
2023-05-13T23:26:53.369Z,53.30
2023-05-13T23:29:19.907Z,53.50
2023-05-13T23:31:46.391Z,53.00
2023-05-13T23:34:12.912Z,52.90
2023-05-13T23:36:39.381Z,53.50
2023-05-13T23:39:05.891Z,53.40
2023-05-13T23:41:32.396Z,53.50
2023-05-13T23:43:58.845Z,53.20
2023-05-13T23:46:25.335Z,52.90
2023-05-13T23:48:51.853Z,53.50
2023-05-13T23:51:18.331Z,53.50
2023-05-13T23:53:44.815Z,53.50
2023-05-13T23:56:11.326Z,53.50
2023-05-13T23:58:37.792Z,54.10
